sensor_id;sensor_type;location;lat;lon;timestamp;pressure;altitude;pressure_sealevel;temperature;humidity
33506;BME280;19843;51.040;13.782;2023-12-29T00:01:38;100074.13;;;7.84;77.02
33506;BME280;19843;51.040;13.782;2023-12-29T00:04:05;100076.84;;;8.10;76.82
33506;BME280;19843;51.040;13.782;2023-12-29T00:06:33;100060.91;;;8.28;75.75
33506;BME280;19843;51.040;13.782;2023-12-29T00:09:11;100054.41;;;8.15;76.56
33506;BME280;19843;51.040;13.782;2023-12-29T00:11:38;100058.63;;;8.21;75.76
33506;BME280;19843;51.040;13.782;2023-12-29T00:14:06;100050.44;;;8.25;75.81
33506;BME280;19843;51.040;13.782;2023-12-29T00:16:34;100055.84;;;8.21;75.83
33506;BME280;19843;51.040;13.782;2023-12-29T00:19:02;100050.97;;;8.18;76.95
33506;BME280;19843;51.040;13.782;2023-12-29T00:21:30;100041.63;;;8.23;76.79
33506;BME280;19843;51.040;13.782;2023-12-29T00:23:57;100042.25;;;8.28;76.25
33506;BME280;19843;51.040;13.782;2023-12-29T00:26:25;100037.34;;;8.25;76.11
33506;BME280;19843;51.040;13.782;2023-12-29T00:28:53;100032.69;;;8.08;76.94
33506;BME280;19843;51.040;13.782;2023-12-29T00:31:21;100030.84;;;7.74;77.85
33506;BME280;19843;51.040;13.782;2023-12-29T00:33:48;100028.69;;;7.88;77.53
33506;BME280;19843;51.040;13.782;2023-12-29T00:36:20;100024.59;;;7.86;77.67
33506;BME280;19843;51.040;13.782;2023-12-29T00:38:47;100024.44;;;7.74;77.85
33506;BME280;19843;51.040;13.782;2023-12-29T00:41:15;100015.00;;;7.66;78.00
33506;BME280;19843;51.040;13.782;2023-12-29T00:43:42;100019.66;;;7.18;80.04
33506;BME280;19843;51.040;13.782;2023-12-29T00:46:10;100015.72;;;7.28;79.56
33506;BME280;19843;51.040;13.782;2023-12-29T00:48:41;100016.38;;;7.25;79.54
33506;BME280;19843;51.040;13.782;2023-12-29T00:51:09;100010.00;;;7.16;79.63
33506;BME280;19843;51.040;13.782;2023-12-29T00:53:38;100014.91;;;7.19;79.71
33506;BME280;19843;51.040;13.782;2023-12-29T00:56:10;100018.81;;;7.18;79.85
33506;BME280;19843;51.040;13.782;2023-12-29T00:58:37;100006.25;;;7.03;80.05
33506;BME280;19843;51.040;13.782;2023-12-29T01:01:07;100017.53;;;6.89;81.11
33506;BME280;19843;51.040;13.782;2023-12-29T01:03:37;100014.59;;;6.95;80.29
33506;BME280;19843;51.040;13.782;2023-12-29T01:06:05;100024.81;;;6.59;81.95
33506;BME280;19843;51.040;13.782;2023-12-29T01:08:32;100020.25;;;6.72;82.18
33506;BME280;19843;51.040;13.782;2023-12-29T01:11:02;100026.97;;;6.71;81.30
33506;BME280;19843;51.040;13.782;2023-12-29T01:13:30;100030.06;;;6.70;81.81
33506;BME280;19843;51.040;13.782;2023-12-29T01:15:57;100026.13;;;6.62;81.87
33506;BME280;19843;51.040;13.782;2023-12-29T01:18:25;100031.66;;;6.62;81.68
33506;BME280;19843;51.040;13.782;2023-12-29T01:20:52;100012.50;;;6.34;82.85
33506;BME280;19843;51.040;13.782;2023-12-29T01:23:20;100012.16;;;6.19;83.52
33506;BME280;19843;51.040;13.782;2023-12-29T01:25:48;100018.84;;;6.18;83.47
33506;BME280;19843;51.040;13.782;2023-12-29T01:28:16;100017.31;;;6.11;83.38
33506;BME280;19843;51.040;13.782;2023-12-29T01:30:44;100010.78;;;5.99;84.42
33506;BME280;19843;51.040;13.782;2023-12-29T01:33:11;100016.88;;;6.18;83.67
33506;BME280;19843;51.040;13.782;2023-12-29T01:35:39;100005.91;;;6.04;84.05
33506;BME280;19843;51.040;13.782;2023-12-29T01:38:07;100004.56;;;6.02;83.74
33506;BME280;19843;51.040;13.782;2023-12-29T01:40:42;100010.94;;;6.02;84.63
33506;BME280;19843;51.040;13.782;2023-12-29T01:43:10;100006.19;;;6.03;84.58
33506;BME280;19843;51.040;13.782;2023-12-29T01:45:38;100006.50;;;5.93;85.34
33506;BME280;19843;51.040;13.782;2023-12-29T01:48:22;100009.81;;;6.03;85.37
33506;BME280;19843;51.040;13.782;2023-12-29T01:50:50;100009.69;;;6.17;84.78
33506;BME280;19843;51.040;13.782;2023-12-29T01:53:18;100001.31;;;6.00;85.11
33506;BME280;19843;51.040;13.782;2023-12-29T01:55:56;100002.31;;;6.04;85.18
33506;BME280;19843;51.040;13.782;2023-12-29T01:58:25;99991.00;;;6.40;86.09
33506;BME280;19843;51.040;13.782;2023-12-29T02:00:54;99985.34;;;6.97;84.46
33506;BME280;19843;51.040;13.782;2023-12-29T02:03:22;99984.19;;;7.41;82.52
33506;BME280;19843;51.040;13.782;2023-12-29T02:05:49;99974.94;;;7.67;80.84
33506;BME280;19843;51.040;13.782;2023-12-29T02:08:18;99984.47;;;8.04;79.51
33506;BME280;19843;51.040;13.782;2023-12-29T02:10:46;99977.47;;;8.28;78.01
33506;BME280;19843;51.040;13.782;2023-12-29T02:13:14;99968.78;;;8.29;76.93
33506;BME280;19843;51.040;13.782;2023-12-29T02:15:42;99987.75;;;8.36;77.35
33506;BME280;19843;51.040;13.782;2023-12-29T02:18:15;99984.81;;;8.32;76.88
33506;BME280;19843;51.040;13.782;2023-12-29T02:20:45;99967.72;;;8.21;77.37
33506;BME280;19843;51.040;13.782;2023-12-29T02:23:14;99966.69;;;8.26;76.91
33506;BME280;19843;51.040;13.782;2023-12-29T02:25:42;99957.00;;;8.32;77.27
33506;BME280;19843;51.040;13.782;2023-12-29T02:28:15;99956.44;;;8.18;77.34
33506;BME280;19843;51.040;13.782;2023-12-29T02:30:50;99963.63;;;8.19;77.96
33506;BME280;19843;51.040;13.782;2023-12-29T02:33:21;99951.63;;;8.27;77.44
33506;BME280;19843;51.040;13.782;2023-12-29T02:35:52;99946.59;;;8.20;77.63
33506;BME280;19843;51.040;13.782;2023-12-29T02:38:22;99928.91;;;8.25;77.79
33506;BME280;19843;51.040;13.782;2023-12-29T02:40:56;99928.44;;;8.23;77.53
33506;BME280;19843;51.040;13.782;2023-12-29T02:43:23;99930.25;;;8.19;77.70
33506;BME280;19843;51.040;13.782;2023-12-29T02:45:51;99930.34;;;8.31;77.52
33506;BME280;19843;51.040;13.782;2023-12-29T02:48:18;99921.38;;;8.26;77.67
33506;BME280;19843;51.040;13.782;2023-12-29T02:50:46;99927.28;;;8.24;77.72
33506;BME280;19843;51.040;13.782;2023-12-29T02:53:14;99916.69;;;8.17;78.13
33506;BME280;19843;51.040;13.782;2023-12-29T02:55:41;99915.88;;;8.17;78.41
33506;BME280;19843;51.040;13.782;2023-12-29T02:58:10;99910.75;;;8.28;77.90
33506;BME280;19843;51.040;13.782;2023-12-29T03:00:38;99918.66;;;8.17;78.34
33506;BME280;19843;51.040;13.782;2023-12-29T03:03:05;99919.91;;;8.28;78.37
33506;BME280;19843;51.040;13.782;2023-12-29T03:05:33;99910.03;;;8.39;77.06
33506;BME280;19843;51.040;13.782;2023-12-29T03:08:00;99917.72;;;8.34;77.53
33506;BME280;19843;51.040;13.782;2023-12-29T03:10:28;99914.69;;;8.27;77.73
33506;BME280;19843;51.040;13.782;2023-12-29T03:12:56;99917.47;;;8.27;78.03
33506;BME280;19843;51.040;13.782;2023-12-29T03:15:25;99915.94;;;8.08;78.33
33506;BME280;19843;51.040;13.782;2023-12-29T03:17:52;99921.88;;;7.98;78.34
33506;BME280;19843;51.040;13.782;2023-12-29T03:20:20;99926.25;;;8.08;77.87
33506;BME280;19843;51.040;13.782;2023-12-29T03:22:47;99920.41;;;7.92;78.63
33506;BME280;19843;51.040;13.782;2023-12-29T03:25:15;99931.25;;;7.85;78.74
33506;BME280;19843;51.040;13.782;2023-12-29T03:27:42;99926.28;;;7.99;78.19
33506;BME280;19843;51.040;13.782;2023-12-29T03:30:11;99930.41;;;7.93;77.85
33506;BME280;19843;51.040;13.782;2023-12-29T03:32:40;99924.31;;;7.61;79.41
33506;BME280;19843;51.040;13.782;2023-12-29T03:35:07;99914.31;;;7.69;78.71
33506;BME280;19843;51.040;13.782;2023-12-29T03:37:35;99917.50;;;7.50;79.37
33506;BME280;19843;51.040;13.782;2023-12-29T03:40:03;99917.53;;;7.41;79.39
33506;BME280;19843;51.040;13.782;2023-12-29T03:42:31;99907.41;;;7.37;79.65
33506;BME280;19843;51.040;13.782;2023-12-29T03:44:58;99902.41;;;7.04;81.81
33506;BME280;19843;51.040;13.782;2023-12-29T03:47:26;99901.53;;;7.30;80.70
33506;BME280;19843;51.040;13.782;2023-12-29T03:49:55;99903.03;;;7.18;81.13
33506;BME280;19843;51.040;13.782;2023-12-29T03:52:23;99901.25;;;7.05;81.02
33506;BME280;19843;51.040;13.782;2023-12-29T03:54:50;99901.72;;;7.25;81.63
33506;BME280;19843;51.040;13.782;2023-12-29T03:57:18;99888.81;;;7.20;82.11
33506;BME280;19843;51.040;13.782;2023-12-29T03:59:45;99887.00;;;7.33;81.26
33506;BME280;19843;51.040;13.782;2023-12-29T04:02:12;99889.88;;;7.45;80.91
33506;BME280;19843;51.040;13.782;2023-12-29T04:04:41;99889.78;;;7.33;81.47
33506;BME280;19843;51.040;13.782;2023-12-29T04:07:10;99896.28;;;7.46;81.21
33506;BME280;19843;51.040;13.782;2023-12-29T04:09:38;99883.84;;;7.52;81.19
33506;BME280;19843;51.040;13.782;2023-12-29T04:12:05;99890.34;;;7.56;80.66
33506;BME280;19843;51.040;13.782;2023-12-29T04:14:33;99881.03;;;7.60;80.49
33506;BME280;19843;51.040;13.782;2023-12-29T04:17:00;99873.59;;;7.73;80.26
33506;BME280;19843;51.040;13.782;2023-12-29T04:19:29;99881.06;;;7.52;80.67
33506;BME280;19843;51.040;13.782;2023-12-29T04:21:57;99880.53;;;7.58;80.95
33506;BME280;19843;51.040;13.782;2023-12-29T04:24:26;99884.28;;;7.92;79.83
33506;BME280;19843;51.040;13.782;2023-12-29T04:26:53;99873.50;;;7.90;79.68
33506;BME280;19843;51.040;13.782;2023-12-29T04:29:21;99879.25;;;7.85;80.13
33506;BME280;19843;51.040;13.782;2023-12-29T04:31:48;99879.84;;;7.70;81.40
33506;BME280;19843;51.040;13.782;2023-12-29T04:34:16;99876.91;;;7.96;80.76
33506;BME280;19843;51.040;13.782;2023-12-29T04:36:43;99880.84;;;7.95;80.87
33506;BME280;19843;51.040;13.782;2023-12-29T04:39:11;99878.50;;;7.76;81.50
33506;BME280;19843;51.040;13.782;2023-12-29T04:41:39;99882.63;;;8.00;80.99
33506;BME280;19843;51.040;13.782;2023-12-29T04:44:07;99878.72;;;8.21;80.37
33506;BME280;19843;51.040;13.782;2023-12-29T04:46:34;99875.06;;;8.30;79.11
33506;BME280;19843;51.040;13.782;2023-12-29T04:49:02;99875.84;;;8.60;78.06
33506;BME280;19843;51.040;13.782;2023-12-29T04:51:29;99879.72;;;8.46;78.42
33506;BME280;19843;51.040;13.782;2023-12-29T04:53:57;99874.91;;;8.56;77.96
33506;BME280;19843;51.040;13.782;2023-12-29T04:56:24;99864.13;;;8.87;76.43
33506;BME280;19843;51.040;13.782;2023-12-29T04:58:53;99864.63;;;8.68;76.94
33506;BME280;19843;51.040;13.782;2023-12-29T05:01:22;99852.97;;;9.20;74.44
33506;BME280;19843;51.040;13.782;2023-12-29T05:03:50;99861.31;;;9.20;73.94
33506;BME280;19843;51.040;13.782;2023-12-29T05:06:18;99862.06;;;8.96;75.17
33506;BME280;19843;51.040;13.782;2023-12-29T05:08:45;99848.44;;;9.16;74.07
33506;BME280;19843;51.040;13.782;2023-12-29T05:11:13;99841.09;;;9.11;73.82
33506;BME280;19843;51.040;13.782;2023-12-29T05:13:40;99853.53;;;9.14;73.59
33506;BME280;19843;51.040;13.782;2023-12-29T05:16:09;99844.22;;;8.97;74.25
33506;BME280;19843;51.040;13.782;2023-12-29T05:18:37;99859.09;;;9.14;73.41
33506;BME280;19843;51.040;13.782;2023-12-29T05:21:05;99877.81;;;9.26;72.61
33506;BME280;19843;51.040;13.782;2023-12-29T05:23:32;99867.09;;;9.61;70.94
33506;BME280;19843;51.040;13.782;2023-12-29T05:25:59;99872.66;;;9.61;70.86
33506;BME280;19843;51.040;13.782;2023-12-29T05:28:27;99872.84;;;9.31;72.23
33506;BME280;19843;51.040;13.782;2023-12-29T05:30:54;99858.34;;;9.38;71.78
33506;BME280;19843;51.040;13.782;2023-12-29T05:33:23;99850.53;;;9.19;72.56
33506;BME280;19843;51.040;13.782;2023-12-29T05:35:51;99853.66;;;9.17;72.82
33506;BME280;19843;51.040;13.782;2023-12-29T05:38:18;99857.81;;;9.11;73.59
33506;BME280;19843;51.040;13.782;2023-12-29T05:40:46;99852.75;;;9.26;72.98
33506;BME280;19843;51.040;13.782;2023-12-29T05:43:14;99847.47;;;9.45;72.93
33506;BME280;19843;51.040;13.782;2023-12-29T05:45:42;99846.91;;;9.64;72.21
33506;BME280;19843;51.040;13.782;2023-12-29T05:48:10;99846.91;;;9.64;71.78
33506;BME280;19843;51.040;13.782;2023-12-29T05:50:41;99842.69;;;9.45;73.16
33506;BME280;19843;51.040;13.782;2023-12-29T05:53:09;99845.47;;;9.58;72.84
33506;BME280;19843;51.040;13.782;2023-12-29T05:55:36;99840.00;;;9.37;73.25
33506;BME280;19843;51.040;13.782;2023-12-29T05:58:04;99853.03;;;9.45;73.62
33506;BME280;19843;51.040;13.782;2023-12-29T06:00:31;99846.91;;;9.64;73.25
33506;BME280;19843;51.040;13.782;2023-12-29T06:02:59;99841.66;;;9.50;73.51
33506;BME280;19843;51.040;13.782;2023-12-29T06:05:26;99845.25;;;9.75;72.54
33506;BME280;19843;51.040;13.782;2023-12-29T06:07:56;99827.16;;;9.69;73.04
33506;BME280;19843;51.040;13.782;2023-12-29T06:10:23;99835.72;;;9.76;72.79
33506;BME280;19843;51.040;13.782;2023-12-29T06:12:51;99828.19;;;9.64;72.47
33506;BME280;19843;51.040;13.782;2023-12-29T06:15:18;99826.09;;;9.73;72.30
33506;BME280;19843;51.040;13.782;2023-12-29T06:17:46;99826.44;;;9.47;73.24
33506;BME280;19843;51.040;13.782;2023-12-29T06:20:14;99823.41;;;9.53;72.95
33506;BME280;19843;51.040;13.782;2023-12-29T06:22:41;99820.41;;;9.45;73.18
33506;BME280;19843;51.040;13.782;2023-12-29T06:25:12;99807.06;;;9.51;73.03
33506;BME280;19843;51.040;13.782;2023-12-29T06:27:39;99800.66;;;9.51;72.85
33506;BME280;19843;51.040;13.782;2023-12-29T06:30:08;99810.53;;;9.36;72.53
33506;BME280;19843;51.040;13.782;2023-12-29T06:32:37;99814.59;;;9.63;70.25
33506;BME280;19843;51.040;13.782;2023-12-29T06:35:05;99820.53;;;9.61;70.44
33506;BME280;19843;51.040;13.782;2023-12-29T06:37:32;99812.94;;;9.98;67.81
33506;BME280;19843;51.040;13.782;2023-12-29T06:40:00;99818.03;;;9.96;67.42
33506;BME280;19843;51.040;13.782;2023-12-29T06:42:28;99821.69;;;9.97;66.77
33506;BME280;19843;51.040;13.782;2023-12-29T06:44:56;99815.97;;;9.93;66.94
33506;BME280;19843;51.040;13.782;2023-12-29T06:47:24;99801.34;;;9.84;67.39
33506;BME280;19843;51.040;13.782;2023-12-29T06:49:51;99795.16;;;9.91;66.54
33506;BME280;19843;51.040;13.782;2023-12-29T06:52:19;99795.50;;;10.01;65.86
33506;BME280;19843;51.040;13.782;2023-12-29T06:54:46;99798.78;;;9.91;65.78
33506;BME280;19843;51.040;13.782;2023-12-29T06:57:14;99794.13;;;9.95;65.71
33506;BME280;19843;51.040;13.782;2023-12-29T06:59:44;99807.34;;;10.11;64.82
33506;BME280;19843;51.040;13.782;2023-12-29T07:02:11;99809.66;;;10.09;65.58
33506;BME280;19843;51.040;13.782;2023-12-29T07:04:41;99801.59;;;9.79;65.75
33506;BME280;19843;51.040;13.782;2023-12-29T07:07:09;99804.25;;;9.75;66.07
33506;BME280;19843;51.040;13.782;2023-12-29T07:09:38;99784.31;;;10.14;64.81
33506;BME280;19843;51.040;13.782;2023-12-29T07:12:06;99787.81;;;10.11;64.59
33506;BME280;19843;51.040;13.782;2023-12-29T07:14:34;99780.53;;;9.94;65.41
33506;BME280;19843;51.040;13.782;2023-12-29T07:17:03;99795.72;;;9.96;65.57
33506;BME280;19843;51.040;13.782;2023-12-29T07:19:31;99788.09;;;9.93;66.51
33506;BME280;19843;51.040;13.782;2023-12-29T07:22:04;99797.22;;;10.06;65.78
33506;BME280;19843;51.040;13.782;2023-12-29T07:24:32;99803.03;;;10.13;65.96
33506;BME280;19843;51.040;13.782;2023-12-29T07:27:01;99809.47;;;9.89;66.70
33506;BME280;19843;51.040;13.782;2023-12-29T07:29:28;99820.13;;;10.12;65.80
33506;BME280;19843;51.040;13.782;2023-12-29T07:31:56;99806.13;;;9.84;67.34
33506;BME280;19843;51.040;13.782;2023-12-29T07:34:25;99812.50;;;9.84;67.04
33506;BME280;19843;51.040;13.782;2023-12-29T07:36:54;99817.59;;;9.82;67.57
33506;BME280;19843;51.040;13.782;2023-12-29T07:39:21;99813.06;;;9.90;67.72
33506;BME280;19843;51.040;13.782;2023-12-29T07:41:50;99823.38;;;10.01;67.29
33506;BME280;19843;51.040;13.782;2023-12-29T07:44:18;99831.28;;;9.99;67.37
33506;BME280;19843;51.040;13.782;2023-12-29T07:46:45;99851.94;;;10.11;66.47
33506;BME280;19843;51.040;13.782;2023-12-29T07:49:13;99843.13;;;10.33;65.77
33506;BME280;19843;51.040;13.782;2023-12-29T07:51:42;99850.56;;;10.29;65.99
33506;BME280;19843;51.040;13.782;2023-12-29T07:54:10;99849.63;;;10.37;65.99
33506;BME280;19843;51.040;13.782;2023-12-29T07:56:37;99850.47;;;10.25;66.81
33506;BME280;19843;51.040;13.782;2023-12-29T07:59:05;99855.38;;;10.57;65.52
33506;BME280;19843;51.040;13.782;2023-12-29T08:01:32;99856.63;;;10.31;65.91
33506;BME280;19843;51.040;13.782;2023-12-29T08:04:00;99856.59;;;10.71;64.90
33506;BME280;19843;51.040;13.782;2023-12-29T08:06:28;99867.00;;;10.59;66.20
33506;BME280;19843;51.040;13.782;2023-12-29T08:08:56;99867.47;;;10.48;65.90
33506;BME280;19843;51.040;13.782;2023-12-29T08:11:25;99863.31;;;10.55;65.64
33506;BME280;19843;51.040;13.782;2023-12-29T08:13:52;99875.56;;;10.78;64.74
33506;BME280;19843;51.040;13.782;2023-12-29T08:16:21;99873.63;;;10.94;64.10
33506;BME280;19843;51.040;13.782;2023-12-29T08:18:49;99893.38;;;10.61;65.35
33506;BME280;19843;51.040;13.782;2023-12-29T08:21:17;99877.84;;;10.88;64.56
33506;BME280;19843;51.040;13.782;2023-12-29T08:23:45;99893.81;;;11.03;63.97
33506;BME280;19843;51.040;13.782;2023-12-29T08:26:15;99896.72;;;11.07;64.34
33506;BME280;19843;51.040;13.782;2023-12-29T08:28:42;99885.41;;;11.47;64.04
33506;BME280;19843;51.040;13.782;2023-12-29T08:31:11;99885.16;;;11.37;63.33
33506;BME280;19843;51.040;13.782;2023-12-29T08:33:39;99897.94;;;10.94;64.61
33506;BME280;19843;51.040;13.782;2023-12-29T08:36:06;99909.28;;;11.01;64.22
33506;BME280;19843;51.040;13.782;2023-12-29T08:38:34;99906.09;;;11.15;64.23
33506;BME280;19843;51.040;13.782;2023-12-29T08:41:00;99882.03;;;11.10;64.73
33506;BME280;19843;51.040;13.782;2023-12-29T08:43:29;99899.66;;;10.98;64.48
33506;BME280;19843;51.040;13.782;2023-12-29T08:45:57;99901.41;;;11.19;64.03
33506;BME280;19843;51.040;13.782;2023-12-29T08:48:24;99897.25;;;11.57;63.56
33506;BME280;19843;51.040;13.782;2023-12-29T08:50:52;99880.38;;;11.37;63.74
33506;BME280;19843;51.040;13.782;2023-12-29T08:53:22;99893.44;;;11.33;63.95
33506;BME280;19843;51.040;13.782;2023-12-29T08:55:49;99884.78;;;11.38;64.38
33506;BME280;19843;51.040;13.782;2023-12-29T08:58:17;99891.91;;;11.36;64.02
33506;BME280;19843;51.040;13.782;2023-12-29T09:00:46;99892.50;;;11.73;62.70
33506;BME280;19843;51.040;13.782;2023-12-29T09:03:14;99892.13;;;11.59;63.05
33506;BME280;19843;51.040;13.782;2023-12-29T09:05:41;99899.50;;;11.51;63.79
33506;BME280;19843;51.040;13.782;2023-12-29T09:08:08;99886.34;;;11.67;63.64
33506;BME280;19843;51.040;13.782;2023-12-29T09:10:36;99880.84;;;11.71;62.92
33506;BME280;19843;51.040;13.782;2023-12-29T09:13:05;99883.97;;;11.53;63.70
33506;BME280;19843;51.040;13.782;2023-12-29T09:15:32;99885.97;;;11.53;63.96
33506;BME280;19843;51.040;13.782;2023-12-29T09:18:02;99873.44;;;11.47;64.40
33506;BME280;19843;51.040;13.782;2023-12-29T09:20:30;99888.47;;;11.26;64.43
33506;BME280;19843;51.040;13.782;2023-12-29T09:22:58;99865.22;;;11.38;63.76
33506;BME280;19843;51.040;13.782;2023-12-29T09:25:26;99868.47;;;11.72;63.35
33506;BME280;19843;51.040;13.782;2023-12-29T09:27:54;99866.31;;;11.65;63.25
33506;BME280;19843;51.040;13.782;2023-12-29T09:30:21;99865.88;;;11.63;63.63
33506;BME280;19843;51.040;13.782;2023-12-29T09:32:49;99873.72;;;11.73;63.54
33506;BME280;19843;51.040;13.782;2023-12-29T09:35:18;99870.00;;;11.53;64.01
33506;BME280;19843;51.040;13.782;2023-12-29T09:37:47;99866.31;;;11.81;62.99
33506;BME280;19843;51.040;13.782;2023-12-29T09:40:15;99874.78;;;12.00;62.64
33506;BME280;19843;51.040;13.782;2023-12-29T09:42:43;99871.56;;;11.98;62.42
33506;BME280;19843;51.040;13.782;2023-12-29T09:45:12;99869.53;;;12.30;61.50
33506;BME280;19843;51.040;13.782;2023-12-29T09:47:42;99870.13;;;12.40;61.11
33506;BME280;19843;51.040;13.782;2023-12-29T09:50:12;99865.19;;;11.82;63.62
33506;BME280;19843;51.040;13.782;2023-12-29T09:52:41;99877.78;;;12.08;63.48
33506;BME280;19843;51.040;13.782;2023-12-29T09:55:10;99884.94;;;12.40;62.34
33506;BME280;19843;51.040;13.782;2023-12-29T09:57:38;99873.31;;;11.87;63.03
33506;BME280;19843;51.040;13.782;2023-12-29T10:00:10;99882.88;;;12.56;60.66
33506;BME280;19843;51.040;13.782;2023-12-29T10:02:38;99882.63;;;12.26;61.36
33506;BME280;19843;51.040;13.782;2023-12-29T10:05:08;99868.28;;;12.67;60.34
33506;BME280;19843;51.040;13.782;2023-12-29T10:07:36;99874.16;;;12.42;61.09
33506;BME280;19843;51.040;13.782;2023-12-29T10:10:07;99859.09;;;12.12;62.14
33506;BME280;19843;51.040;13.782;2023-12-29T10:12:36;99872.31;;;12.30;61.60
33506;BME280;19843;51.040;13.782;2023-12-29T10:15:06;99876.34;;;12.68;60.81
33506;BME280;19843;51.040;13.782;2023-12-29T10:17:43;99876.06;;;12.38;61.11
33506;BME280;19843;51.040;13.782;2023-12-29T10:20:16;99880.53;;;12.59;61.56
33506;BME280;19843;51.040;13.782;2023-12-29T10:22:51;99882.75;;;12.69;60.46
33506;BME280;19843;51.040;13.782;2023-12-29T10:25:22;99877.38;;;12.79;60.56
33506;BME280;19843;51.040;13.782;2023-12-29T10:27:50;99886.94;;;12.24;61.38
33506;BME280;19843;51.040;13.782;2023-12-29T10:30:18;99892.47;;;12.55;61.18
33506;BME280;19843;51.040;13.782;2023-12-29T10:32:56;99894.22;;;12.44;60.71
33506;BME280;19843;51.040;13.782;2023-12-29T10:35:25;99896.78;;;12.53;60.46
33506;BME280;19843;51.040;13.782;2023-12-29T10:37:54;99894.75;;;12.69;60.09
33506;BME280;19843;51.040;13.782;2023-12-29T10:40:23;99890.94;;;12.58;59.81
33506;BME280;19843;51.040;13.782;2023-12-29T10:42:53;99893.66;;;12.74;60.56
33506;BME280;19843;51.040;13.782;2023-12-29T10:45:21;99886.59;;;12.25;61.60
33506;BME280;19843;51.040;13.782;2023-12-29T10:47:49;99892.84;;;12.93;59.91
33506;BME280;19843;51.040;13.782;2023-12-29T10:50:17;99903.38;;;12.25;60.31
33506;BME280;19843;51.040;13.782;2023-12-29T10:52:44;99903.63;;;12.36;61.02
33506;BME280;19843;51.040;13.782;2023-12-29T10:55:13;99899.72;;;12.41;60.86
33506;BME280;19843;51.040;13.782;2023-12-29T10:57:41;99889.88;;;12.47;60.47
33506;BME280;19843;51.040;13.782;2023-12-29T11:00:10;99889.28;;;12.57;60.82
33506;BME280;19843;51.040;13.782;2023-12-29T11:02:39;99887.00;;;13.21;58.71
33506;BME280;19843;51.040;13.782;2023-12-29T11:05:08;99875.44;;;12.64;59.95
33506;BME280;19843;51.040;13.782;2023-12-29T11:07:38;99880.56;;;12.43;59.92
33506;BME280;19843;51.040;13.782;2023-12-29T11:10:07;99863.50;;;12.67;59.95
33506;BME280;19843;51.040;13.782;2023-12-29T11:12:36;99858.03;;;13.13;58.69
33506;BME280;19843;51.040;13.782;2023-12-29T11:15:07;99865.88;;;12.65;60.27
33506;BME280;19843;51.040;13.782;2023-12-29T11:17:36;99874.47;;;12.95;58.71
33506;BME280;19843;51.040;13.782;2023-12-29T11:20:04;99868.25;;;12.82;59.72
33506;BME280;19843;51.040;13.782;2023-12-29T11:22:32;99872.28;;;12.85;59.57
33506;BME280;19843;51.040;13.782;2023-12-29T11:25:00;99862.25;;;12.65;59.97
33506;BME280;19843;51.040;13.782;2023-12-29T11:27:30;99859.34;;;13.19;58.41
33506;BME280;19843;51.040;13.782;2023-12-29T11:29:58;99855.75;;;12.99;58.69
33506;BME280;19843;51.040;13.782;2023-12-29T11:32:36;99866.06;;;12.95;59.29
33506;BME280;19843;51.040;13.782;2023-12-29T11:35:28;99852.00;;;13.53;57.99
33506;BME280;19843;51.040;13.782;2023-12-29T11:38:11;99847.44;;;13.45;57.69
33506;BME280;19843;51.040;13.782;2023-12-29T11:40:46;99847.16;;;12.69;59.45
33506;BME280;19843;51.040;13.782;2023-12-29T11:43:17;99847.47;;;13.72;57.29
33506;BME280;19843;51.040;13.782;2023-12-29T11:45:45;99848.00;;;13.31;57.93
33506;BME280;19843;51.040;13.782;2023-12-29T11:48:53;99855.53;;;13.08;58.73
33506;BME280;19843;51.040;13.782;2023-12-29T11:51:27;99826.84;;;13.34;56.57
33506;BME280;19843;51.040;13.782;2023-12-29T11:53:55;99823.34;;;13.41;57.11
33506;BME280;19843;51.040;13.782;2023-12-29T11:56:23;99819.72;;;13.63;57.38
33506;BME280;19843;51.040;13.782;2023-12-29T11:58:50;99821.22;;;13.34;57.59
33506;BME280;19843;51.040;13.782;2023-12-29T12:01:33;99834.31;;;13.07;57.66
33506;BME280;19843;51.040;13.782;2023-12-29T12:04:02;99804.84;;;13.36;57.66
33506;BME280;19843;51.040;13.782;2023-12-29T12:06:36;99818.47;;;12.56;58.83
33506;BME280;19843;51.040;13.782;2023-12-29T12:09:16;99817.47;;;12.45;59.61
33506;BME280;19843;51.040;13.782;2023-12-29T12:11:49;99814.13;;;12.78;59.00
33506;BME280;19843;51.040;13.782;2023-12-29T12:14:48;99806.09;;;12.77;59.42
33506;BME280;19843;51.040;13.782;2023-12-29T12:17:32;99806.59;;;13.02;58.82
33506;BME280;19843;51.040;13.782;2023-12-29T12:20:06;99795.13;;;12.68;59.36
33506;BME280;19843;51.040;13.782;2023-12-29T12:22:35;99789.59;;;12.72;59.09
33506;BME280;19843;51.040;13.782;2023-12-29T12:25:05;99777.97;;;12.50;59.55
33506;BME280;19843;51.040;13.782;2023-12-29T12:27:37;99774.66;;;12.64;59.16
33506;BME280;19843;51.040;13.782;2023-12-29T12:30:06;99772.78;;;12.72;59.95
33506;BME280;19843;51.040;13.782;2023-12-29T12:32:36;99775.28;;;12.96;58.50
33506;BME280;19843;51.040;13.782;2023-12-29T12:35:13;99774.44;;;13.19;58.59
33506;BME280;19843;51.040;13.782;2023-12-29T12:37:43;99772.56;;;12.80;59.88
33506;BME280;19843;51.040;13.782;2023-12-29T12:40:11;99775.31;;;13.00;59.48
33506;BME280;19843;51.040;13.782;2023-12-29T12:42:51;99784.53;;;13.00;59.82
33506;BME280;19843;51.040;13.782;2023-12-29T12:45:20;99776.31;;;12.88;59.64
33506;BME280;19843;51.040;13.782;2023-12-29T12:47:51;99775.03;;;13.28;59.49
33506;BME280;19843;51.040;13.782;2023-12-29T12:50:21;99785.38;;;12.81;60.30
33506;BME280;19843;51.040;13.782;2023-12-29T12:52:48;99789.75;;;12.79;60.30
33506;BME280;19843;51.040;13.782;2023-12-29T12:55:16;99801.22;;;12.93;60.29
33506;BME280;19843;51.040;13.782;2023-12-29T12:57:44;99809.34;;;12.79;60.71
33506;BME280;19843;51.040;13.782;2023-12-29T13:00:14;99806.97;;;12.81;60.08
33506;BME280;19843;51.040;13.782;2023-12-29T13:02:44;99802.72;;;12.48;61.18
33506;BME280;19843;51.040;13.782;2023-12-29T13:05:12;99817.28;;;12.57;60.96